sensor_id;sensor_type;location;lat;lon;timestamp;P1;durP1;ratioP1;P2;durP2;ratioP2
14766;SDS011;7475;53.558;9.970;2022-12-20T00:01:59;7.47;;;5.63;;
14766;SDS011;7475;53.558;9.970;2022-12-20T00:04:25;7.38;;;5.25;;
14766;SDS011;7475;53.558;9.970;2022-12-20T00:06:50;7.38;;;5.20;;
14766;SDS011;7475;53.558;9.970;2022-12-20T00:09:15;6.15;;;5.10;;
14766;SDS011;7475;53.558;9.970;2022-12-20T00:11:41;7.20;;;5.10;;
14766;SDS011;7475;53.558;9.970;2022-12-20T00:14:07;8.00;;;5.47;;
14766;SDS011;7475;53.558;9.970;2022-12-20T00:16:34;7.75;;;5.35;;
14766;SDS011;7475;53.558;9.970;2022-12-20T00:19:00;7.63;;;5.40;;
14766;SDS011;7475;53.558;9.970;2022-12-20T00:21:28;8.73;;;5.60;;
14766;SDS011;7475;53.558;9.970;2022-12-20T00:23:55;5.78;;;4.00;;
14766;SDS011;7475;53.558;9.970;2022-12-20T00:26:22;7.60;;;5.30;;
14766;SDS011;7475;53.558;9.970;2022-12-20T00:28:49;6.50;;;5.03;;
14766;SDS011;7475;53.558;9.970;2022-12-20T00:31:16;6.40;;;5.03;;
14766;SDS011;7475;53.558;9.970;2022-12-20T00:33:47;6.53;;;5.55;;
14766;SDS011;7475;53.558;9.970;2022-12-20T00:36:14;6.57;;;5.03;;
14766;SDS011;7475;53.558;9.970;2022-12-20T00:38:40;8.15;;;5.53;;
14766;SDS011;7475;53.558;9.970;2022-12-20T00:41:09;9.18;;;5.93;;
14766;SDS011;7475;53.558;9.970;2022-12-20T00:43:37;9.25;;;5.97;;
14766;SDS011;7475;53.558;9.970;2022-12-20T00:46:03;6.97;;;5.45;;
14766;SDS011;7475;53.558;9.970;2022-12-20T00:48:29;8.73;;;6.30;;
14766;SDS011;7475;53.558;9.970;2022-12-20T00:51:00;7.78;;;6.40;;
14766;SDS011;7475;53.558;9.970;2022-12-20T00:53:26;9.27;;;5.82;;
14766;SDS011;7475;53.558;9.970;2022-12-20T00:55:53;8.60;;;6.40;;
14766;SDS011;7475;53.558;9.970;2022-12-20T00:58:18;7.00;;;5.65;;
14766;SDS011;7475;53.558;9.970;2022-12-20T01:00:44;7.70;;;5.25;;
14766;SDS011;7475;53.558;9.970;2022-12-20T01:03:09;6.93;;;5.78;;
14766;SDS011;7475;53.558;9.970;2022-12-20T01:05:34;7.57;;;5.35;;
14766;SDS011;7475;53.558;9.970;2022-12-20T01:08:00;7.15;;;5.00;;
14766;SDS011;7475;53.558;9.970;2022-12-20T01:10:26;8.75;;;5.78;;
14766;SDS011;7475;53.558;9.970;2022-12-20T01:12:51;8.80;;;5.75;;
14766;SDS011;7475;53.558;9.970;2022-12-20T01:15:17;7.40;;;5.30;;
14766;SDS011;7475;53.558;9.970;2022-12-20T01:17:42;8.27;;;5.85;;
14766;SDS011;7475;53.558;9.970;2022-12-20T01:20:08;7.82;;;5.90;;
14766;SDS011;7475;53.558;9.970;2022-12-20T01:22:34;7.00;;;5.63;;
14766;SDS011;7475;53.558;9.970;2022-12-20T01:24:59;7.68;;;5.38;;
14766;SDS011;7475;53.558;9.970;2022-12-20T01:27:25;7.57;;;5.53;;
14766;SDS011;7475;53.558;9.970;2022-12-20T01:29:50;10.25;;;5.82;;
14766;SDS011;7475;53.558;9.970;2022-12-20T01:32:15;6.57;;;4.97;;
14766;SDS011;7475;53.558;9.970;2022-12-20T01:34:41;7.47;;;5.30;;
14766;SDS011;7475;53.558;9.970;2022-12-20T01:37:06;6.50;;;4.78;;
14766;SDS011;7475;53.558;9.970;2022-12-20T01:39:32;5.72;;;4.80;;
14766;SDS011;7475;53.558;9.970;2022-12-20T01:41:57;7.18;;;5.40;;
14766;SDS011;7475;53.558;9.970;2022-12-20T01:46:48;6.82;;;4.72;;
14766;SDS011;7475;53.558;9.970;2022-12-20T01:49:21;8.80;;;5.20;;
14766;SDS011;7475;53.558;9.970;2022-12-20T01:54:29;6.38;;;4.60;;
14766;SDS011;7475;53.558;9.970;2022-12-20T01:57:00;7.72;;;4.70;;
14766;SDS011;7475;53.558;9.970;2022-12-20T01:59:30;5.93;;;4.60;;
14766;SDS011;7475;53.558;9.970;2022-12-20T02:02:01;5.78;;;4.63;;
14766;SDS011;7475;53.558;9.970;2022-12-20T02:04:28;7.60;;;4.75;;
14766;SDS011;7475;53.558;9.970;2022-12-20T02:06:54;6.63;;;3.92;;
14766;SDS011;7475;53.558;9.970;2022-12-20T02:09:20;6.72;;;4.90;;
14766;SDS011;7475;53.558;9.970;2022-12-20T02:14:42;5.75;;;4.65;;
14766;SDS011;7475;53.558;9.970;2022-12-20T02:34:36;6.80;;;4.65;;
14766;SDS011;7475;53.558;9.970;2022-12-20T02:37:05;6.53;;;4.88;;
14766;SDS011;7475;53.558;9.970;2022-12-20T02:39:30;7.07;;;4.65;;
14766;SDS011;7475;53.558;9.970;2022-12-20T02:42:00;7.38;;;4.40;;
14766;SDS011;7475;53.558;9.970;2022-12-20T02:44:29;5.95;;;4.18;;
14766;SDS011;7475;53.558;9.970;2022-12-20T02:47:17;5.25;;;4.22;;
14766;SDS011;7475;53.558;9.970;2022-12-20T02:50:06;6.78;;;4.68;;
14766;SDS011;7475;53.558;9.970;2022-12-20T02:52:32;4.85;;;4.35;;
14766;SDS011;7475;53.558;9.970;2022-12-20T02:54:59;7.85;;;4.40;;
14766;SDS011;7475;53.558;9.970;2022-12-20T02:57:28;5.95;;;4.03;;
14766;SDS011;7475;53.558;9.970;2022-12-20T03:02:38;5.47;;;4.28;;
14766;SDS011;7475;53.558;9.970;2022-12-20T03:05:23;5.18;;;4.47;;
14766;SDS011;7475;53.558;9.970;2022-12-20T03:07:51;6.25;;;4.30;;
14766;SDS011;7475;53.558;9.970;2022-12-20T03:10:17;5.45;;;4.25;;
14766;SDS011;7475;53.558;9.970;2022-12-20T03:12:43;4.70;;;4.20;;
14766;SDS011;7475;53.558;9.970;2022-12-20T03:15:09;6.47;;;4.10;;
14766;SDS011;7475;53.558;9.970;2022-12-20T03:17:34;5.35;;;4.45;;
14766;SDS011;7475;53.558;9.970;2022-12-20T03:20:00;5.53;;;4.38;;
14766;SDS011;7475;53.558;9.970;2022-12-20T03:22:25;5.35;;;3.85;;
14766;SDS011;7475;53.558;9.970;2022-12-20T03:24:51;4.82;;;3.80;;
14766;SDS011;7475;53.558;9.970;2022-12-20T03:27:16;5.78;;;3.38;;
14766;SDS011;7475;53.558;9.970;2022-12-20T03:29:42;9.05;;;4.30;;
14766;SDS011;7475;53.558;9.970;2022-12-20T03:32:08;6.60;;;3.90;;
14766;SDS011;7475;53.558;9.970;2022-12-20T03:34:33;5.22;;;3.97;;
14766;SDS011;7475;53.558;9.970;2022-12-20T03:36:59;6.35;;;4.00;;
14766;SDS011;7475;53.558;9.970;2022-12-20T03:39:24;6.43;;;4.05;;
14766;SDS011;7475;53.558;9.970;2022-12-20T03:41:49;4.68;;;3.83;;
14766;SDS011;7475;53.558;9.970;2022-12-20T03:44:15;4.53;;;3.58;;
14766;SDS011;7475;53.558;9.970;2022-12-20T03:46:40;7.53;;;4.03;;
14766;SDS011;7475;53.558;9.970;2022-12-20T03:49:05;4.80;;;3.72;;
14766;SDS011;7475;53.558;9.970;2022-12-20T03:51:30;5.65;;;3.35;;
14766;SDS011;7475;53.558;9.970;2022-12-20T03:53:56;4.78;;;3.67;;
14766;SDS011;7475;53.558;9.970;2022-12-20T03:56:21;6.28;;;3.78;;
14766;SDS011;7475;53.558;9.970;2022-12-20T03:58:46;4.93;;;3.78;;
14766;SDS011;7475;53.558;9.970;2022-12-20T04:01:22;6.03;;;3.80;;
14766;SDS011;7475;53.558;9.970;2022-12-20T04:03:49;6.53;;;3.90;;
14766;SDS011;7475;53.558;9.970;2022-12-20T04:06:15;5.28;;;3.65;;
14766;SDS011;7475;53.558;9.970;2022-12-20T04:08:41;4.80;;;3.78;;
14766;SDS011;7475;53.558;9.970;2022-12-20T04:11:06;4.88;;;3.55;;
14766;SDS011;7475;53.558;9.970;2022-12-20T04:13:44;3.83;;;3.17;;
14766;SDS011;7475;53.558;9.970;2022-12-20T04:16:15;3.92;;;3.05;;
14766;SDS011;7475;53.558;9.970;2022-12-20T04:18:42;6.72;;;3.97;;
14766;SDS011;7475;53.558;9.970;2022-12-20T04:21:08;3.90;;;3.03;;
14766;SDS011;7475;53.558;9.970;2022-12-20T04:23:35;5.72;;;3.08;;
14766;SDS011;7475;53.558;9.970;2022-12-20T04:26:03;3.72;;;3.20;;
14766;SDS011;7475;53.558;9.970;2022-12-20T04:28:30;4.63;;;3.67;;
14766;SDS011;7475;53.558;9.970;2022-12-20T04:30:56;4.68;;;2.83;;
14766;SDS011;7475;53.558;9.970;2022-12-20T04:33:22;5.00;;;2.90;;
14766;SDS011;7475;53.558;9.970;2022-12-20T04:35:48;6.30;;;3.42;;
14766;SDS011;7475;53.558;9.970;2022-12-20T04:38:13;3.78;;;3.17;;
14766;SDS011;7475;53.558;9.970;2022-12-20T04:40:39;4.30;;;3.00;;
14766;SDS011;7475;53.558;9.970;2022-12-20T04:43:04;4.63;;;3.08;;
14766;SDS011;7475;53.558;9.970;2022-12-20T04:45:30;5.60;;;3.03;;
14766;SDS011;7475;53.558;9.970;2022-12-20T04:47:55;3.58;;;2.85;;
14766;SDS011;7475;53.558;9.970;2022-12-20T04:50:20;4.68;;;2.60;;
14766;SDS011;7475;53.558;9.970;2022-12-20T04:52:46;5.45;;;3.45;;
14766;SDS011;7475;53.558;9.970;2022-12-20T04:55:29;5.28;;;3.03;;
14766;SDS011;7475;53.558;9.970;2022-12-20T04:57:55;3.75;;;2.70;;
14766;SDS011;7475;53.558;9.970;2022-12-20T05:00:20;5.95;;;3.70;;
14766;SDS011;7475;53.558;9.970;2022-12-20T05:02:46;3.65;;;3.22;;
14766;SDS011;7475;53.558;9.970;2022-12-20T05:05:11;7.80;;;3.85;;
14766;SDS011;7475;53.558;9.970;2022-12-20T05:07:38;4.57;;;3.85;;
14766;SDS011;7475;53.558;9.970;2022-12-20T05:10:03;5.60;;;4.10;;
14766;SDS011;7475;53.558;9.970;2022-12-20T05:12:29;6.88;;;3.53;;
14766;SDS011;7475;53.558;9.970;2022-12-20T05:14:54;7.38;;;4.28;;
14766;SDS011;7475;53.558;9.970;2022-12-20T05:17:19;4.35;;;3.78;;
14766;SDS011;7475;53.558;9.970;2022-12-20T05:19:45;6.53;;;4.03;;
14766;SDS011;7475;53.558;9.970;2022-12-20T05:22:10;4.72;;;3.53;;
14766;SDS011;7475;53.558;9.970;2022-12-20T05:24:54;5.75;;;3.78;;
14766;SDS011;7475;53.558;9.970;2022-12-20T05:27:38;6.15;;;4.10;;
14766;SDS011;7475;53.558;9.970;2022-12-20T05:30:03;8.68;;;4.00;;
14766;SDS011;7475;53.558;9.970;2022-12-20T05:32:29;5.78;;;3.88;;
14766;SDS011;7475;53.558;9.970;2022-12-20T05:34:54;5.32;;;4.07;;
14766;SDS011;7475;53.558;9.970;2022-12-20T05:37:20;5.43;;;3.42;;
14766;SDS011;7475;53.558;9.970;2022-12-20T05:39:45;6.38;;;3.90;;
14766;SDS011;7475;53.558;9.970;2022-12-20T05:42:11;6.18;;;4.00;;
14766;SDS011;7475;53.558;9.970;2022-12-20T05:44:36;7.32;;;4.70;;
14766;SDS011;7475;53.558;9.970;2022-12-20T05:47:01;6.93;;;3.88;;
14766;SDS011;7475;53.558;9.970;2022-12-20T05:49:27;6.18;;;4.13;;
14766;SDS011;7475;53.558;9.970;2022-12-20T05:51:52;4.70;;;3.78;;
14766;SDS011;7475;53.558;9.970;2022-12-20T05:54:17;4.18;;;3.55;;
14766;SDS011;7475;53.558;9.970;2022-12-20T05:56:43;6.50;;;4.15;;
14766;SDS011;7475;53.558;9.970;2022-12-20T05:59:08;4.35;;;3.38;;
14766;SDS011;7475;53.558;9.970;2022-12-20T06:01:33;7.60;;;3.85;;
14766;SDS011;7475;53.558;9.970;2022-12-20T06:03:59;6.30;;;3.83;;
14766;SDS011;7475;53.558;9.970;2022-12-20T06:06:24;4.68;;;3.63;;
14766;SDS011;7475;53.558;9.970;2022-12-20T06:08:49;5.57;;;3.83;;
14766;SDS011;7475;53.558;9.970;2022-12-20T06:11:15;5.30;;;4.50;;
14766;SDS011;7475;53.558;9.970;2022-12-20T06:13:40;5.47;;;4.20;;
14766;SDS011;7475;53.558;9.970;2022-12-20T06:16:05;7.40;;;4.72;;
14766;SDS011;7475;53.558;9.970;2022-12-20T06:18:31;5.70;;;4.10;;
14766;SDS011;7475;53.558;9.970;2022-12-20T06:20:56;7.68;;;4.25;;
14766;SDS011;7475;53.558;9.970;2022-12-20T06:23:21;5.95;;;4.22;;
14766;SDS011;7475;53.558;9.970;2022-12-20T06:25:47;7.25;;;4.80;;
14766;SDS011;7475;53.558;9.970;2022-12-20T06:28:12;4.38;;;3.72;;
14766;SDS011;7475;53.558;9.970;2022-12-20T06:30:38;4.75;;;4.18;;
14766;SDS011;7475;53.558;9.970;2022-12-20T06:33:03;5.65;;;4.18;;
14766;SDS011;7475;53.558;9.970;2022-12-20T06:35:29;5.70;;;4.40;;
14766;SDS011;7475;53.558;9.970;2022-12-20T06:37:54;5.97;;;4.43;;
14766;SDS011;7475;53.558;9.970;2022-12-20T06:40:21;5.95;;;4.32;;
14766;SDS011;7475;53.558;9.970;2022-12-20T06:42:46;6.53;;;4.25;;
14766;SDS011;7475;53.558;9.970;2022-12-20T06:45:12;4.43;;;3.53;;
14766;SDS011;7475;53.558;9.970;2022-12-20T06:47:37;7.95;;;3.92;;
14766;SDS011;7475;53.558;9.970;2022-12-20T06:50:04;5.50;;;3.80;;
14766;SDS011;7475;53.558;9.970;2022-12-20T06:52:30;7.00;;;3.80;;
14766;SDS011;7475;53.558;9.970;2022-12-20T06:54:55;5.00;;;4.10;;
14766;SDS011;7475;53.558;9.970;2022-12-20T06:57:21;4.63;;;3.58;;
14766;SDS011;7475;53.558;9.970;2022-12-20T06:59:46;6.15;;;3.70;;
14766;SDS011;7475;53.558;9.970;2022-12-20T07:02:12;5.00;;;3.85;;
14766;SDS011;7475;53.558;9.970;2022-12-20T07:04:37;4.18;;;3.50;;
14766;SDS011;7475;53.558;9.970;2022-12-20T07:07:03;5.53;;;3.85;;
14766;SDS011;7475;53.558;9.970;2022-12-20T07:09:29;8.68;;;3.78;;
14766;SDS011;7475;53.558;9.970;2022-12-20T07:11:54;7.10;;;3.85;;
14766;SDS011;7475;53.558;9.970;2022-12-20T07:14:20;6.00;;;4.25;;
14766;SDS011;7475;53.558;9.970;2022-12-20T07:16:45;4.93;;;3.85;;
14766;SDS011;7475;53.558;9.970;2022-12-20T07:19:11;5.20;;;3.92;;
14766;SDS011;7475;53.558;9.970;2022-12-20T07:21:38;4.78;;;4.25;;
14766;SDS011;7475;53.558;9.970;2022-12-20T07:24:03;4.97;;;4.03;;
14766;SDS011;7475;53.558;9.970;2022-12-20T07:26:29;6.53;;;4.50;;
14766;SDS011;7475;53.558;9.970;2022-12-20T07:28:55;7.03;;;5.03;;
14766;SDS011;7475;53.558;9.970;2022-12-20T07:31:20;7.35;;;4.70;;
14766;SDS011;7475;53.558;9.970;2022-12-20T07:33:46;6.60;;;4.85;;
14766;SDS011;7475;53.558;9.970;2022-12-20T07:36:12;5.40;;;4.68;;
14766;SDS011;7475;53.558;9.970;2022-12-20T07:38:39;6.50;;;4.47;;
14766;SDS011;7475;53.558;9.970;2022-12-20T07:41:06;5.00;;;4.43;;
14766;SDS011;7475;53.558;9.970;2022-12-20T07:43:32;5.68;;;4.85;;
14766;SDS011;7475;53.558;9.970;2022-12-20T07:45:58;7.38;;;5.20;;
14766;SDS011;7475;53.558;9.970;2022-12-20T07:48:23;5.18;;;4.68;;
14766;SDS011;7475;53.558;9.970;2022-12-20T07:50:52;7.35;;;5.68;;
14766;SDS011;7475;53.558;9.970;2022-12-20T07:53:23;7.45;;;5.30;;
14766;SDS011;7475;53.558;9.970;2022-12-20T07:55:51;10.07;;;5.60;;
14766;SDS011;7475;53.558;9.970;2022-12-20T07:58:19;6.38;;;5.13;;
14766;SDS011;7475;53.558;9.970;2022-12-20T08:00:45;8.43;;;5.18;;
14766;SDS011;7475;53.558;9.970;2022-12-20T08:03:11;6.35;;;5.25;;
14766;SDS011;7475;53.558;9.970;2022-12-20T08:05:48;6.95;;;4.88;;
14766;SDS011;7475;53.558;9.970;2022-12-20T08:08:17;6.57;;;5.68;;
14766;SDS011;7475;53.558;9.970;2022-12-20T08:10:44;8.32;;;5.53;;
14766;SDS011;7475;53.558;9.970;2022-12-20T08:13:10;6.93;;;5.20;;
14766;SDS011;7475;53.558;9.970;2022-12-20T08:15:36;7.38;;;5.50;;
14766;SDS011;7475;53.558;9.970;2022-12-20T08:18:01;6.57;;;5.05;;
14766;SDS011;7475;53.558;9.970;2022-12-20T08:20:27;7.80;;;5.28;;
14766;SDS011;7475;53.558;9.970;2022-12-20T08:22:52;7.35;;;4.97;;
14766;SDS011;7475;53.558;9.970;2022-12-20T08:25:18;7.75;;;4.45;;
14766;SDS011;7475;53.558;9.970;2022-12-20T08:27:45;6.35;;;4.53;;
14766;SDS011;7475;53.558;9.970;2022-12-20T08:30:11;6.60;;;4.78;;
14766;SDS011;7475;53.558;9.970;2022-12-20T08:32:36;5.38;;;4.28;;
14766;SDS011;7475;53.558;9.970;2022-12-20T08:35:02;6.00;;;4.45;;
14766;SDS011;7475;53.558;9.970;2022-12-20T08:37:28;5.95;;;4.32;;
14766;SDS011;7475;53.558;9.970;2022-12-20T08:39:53;6.05;;;4.25;;
14766;SDS011;7475;53.558;9.970;2022-12-20T08:42:19;6.18;;;4.28;;
14766;SDS011;7475;53.558;9.970;2022-12-20T08:44:44;5.15;;;3.80;;
14766;SDS011;7475;53.558;9.970;2022-12-20T08:47:10;4.97;;;3.97;;
14766;SDS011;7475;53.558;9.970;2022-12-20T08:49:35;6.28;;;4.15;;
14766;SDS011;7475;53.558;9.970;2022-12-20T08:52:00;5.57;;;4.00;;
14766;SDS011;7475;53.558;9.970;2022-12-20T08:54:26;5.45;;;4.10;;
14766;SDS011;7475;53.558;9.970;2022-12-20T08:56:51;7.07;;;3.90;;
14766;SDS011;7475;53.558;9.970;2022-12-20T08:59:17;6.72;;;4.43;;
14766;SDS011;7475;53.558;9.970;2022-12-20T09:01:42;5.15;;;3.60;;
14766;SDS011;7475;53.558;9.970;2022-12-20T09:04:09;6.80;;;3.83;;
14766;SDS011;7475;53.558;9.970;2022-12-20T09:06:35;6.30;;;4.20;;
14766;SDS011;7475;53.558;9.970;2022-12-20T09:09:00;4.63;;;3.70;;
14766;SDS011;7475;53.558;9.970;2022-12-20T09:11:26;4.80;;;3.83;;
14766;SDS011;7475;53.558;9.970;2022-12-20T09:13:52;9.25;;;5.03;;
14766;SDS011;7475;53.558;9.970;2022-12-20T09:16:20;5.28;;;4.40;;
14766;SDS011;7475;53.558;9.970;2022-12-20T09:18:51;6.07;;;3.90;;
14766;SDS011;7475;53.558;9.970;2022-12-20T09:21:18;5.93;;;3.83;;
14766;SDS011;7475;53.558;9.970;2022-12-20T09:23:44;6.85;;;3.75;;
14766;SDS011;7475;53.558;9.970;2022-12-20T09:26:10;4.65;;;3.80;;
14766;SDS011;7475;53.558;9.970;2022-12-20T09:28:38;5.60;;;3.72;;
14766;SDS011;7475;53.558;9.970;2022-12-20T09:31:05;6.03;;;4.43;;
14766;SDS011;7475;53.558;9.970;2022-12-20T09:33:33;6.25;;;4.15;;
14766;SDS011;7475;53.558;9.970;2022-12-20T09:35:59;6.93;;;4.43;;
14766;SDS011;7475;53.558;9.970;2022-12-20T09:38:26;4.15;;;3.67;;
14766;SDS011;7475;53.558;9.970;2022-12-20T09:40:53;5.47;;;3.63;;
14766;SDS011;7475;53.558;9.970;2022-12-20T09:43:21;6.45;;;4.57;;
14766;SDS011;7475;53.558;9.970;2022-12-20T09:45:49;4.68;;;3.65;;
14766;SDS011;7475;53.558;9.970;2022-12-20T09:48:23;6.28;;;4.15;;
14766;SDS011;7475;53.558;9.970;2022-12-20T09:51:06;6.97;;;4.45;;
14766;SDS011;7475;53.558;9.970;2022-12-20T09:53:50;6.60;;;4.00;;
14766;SDS011;7475;53.558;9.970;2022-12-20T09:56:23;5.97;;;4.57;;
14766;SDS011;7475;53.558;9.970;2022-12-20T09:59:02;5.97;;;4.47;;
14766;SDS011;7475;53.558;9.970;2022-12-20T10:01:31;6.35;;;3.80;;
14766;SDS011;7475;53.558;9.970;2022-12-20T10:04:00;6.10;;;4.68;;
14766;SDS011;7475;53.558;9.970;2022-12-20T10:12:33;7.57;;;4.75;;
14766;SDS011;7475;53.558;9.970;2022-12-20T10:15:20;6.45;;;4.50;;
14766;SDS011;7475;53.558;9.970;2022-12-20T10:20:32;6.38;;;4.93;;
14766;SDS011;7475;53.558;9.970;2022-12-20T10:25:57;4.55;;;4.15;;
14766;SDS011;7475;53.558;9.970;2022-12-20T10:28:29;7.85;;;4.72;;
14766;SDS011;7475;53.558;9.970;2022-12-20T10:31:00;5.97;;;3.70;;
14766;SDS011;7475;53.558;9.970;2022-12-20T10:33:31;7.60;;;4.35;;
14766;SDS011;7475;53.558;9.970;2022-12-20T10:36:16;6.57;;;4.15;;
14766;SDS011;7475;53.558;9.970;2022-12-20T10:38:45;4.22;;;3.53;;
14766;SDS011;7475;53.558;9.970;2022-12-20T10:41:20;6.15;;;3.50;;
14766;SDS011;7475;53.558;9.970;2022-12-20T10:43:55;4.72;;;3.58;;
14766;SDS011;7475;53.558;9.970;2022-12-20T10:46:22;6.90;;;3.90;;
14766;SDS011;7475;53.558;9.970;2022-12-20T10:48:48;4.68;;;3.60;;
14766;SDS011;7475;53.558;9.970;2022-12-20T10:51:20;5.95;;;3.65;;
14766;SDS011;7475;53.558;9.970;2022-12-20T11:01:24;4.80;;;3.50;;
14766;SDS011;7475;53.558;9.970;2022-12-20T11:04:37;5.85;;;3.40;;
14766;SDS011;7475;53.558;9.970;2022-12-20T11:06:50;4.88;;;3.47;;
14766;SDS011;7475;53.558;9.970;2022-12-20T11:11:56;5.57;;;3.80;;
14766;SDS011;7475;53.558;9.970;2022-12-20T11:14:25;4.82;;;3.78;;
14766;SDS011;7475;53.558;9.970;2022-12-20T11:16:52;3.70;;;2.88;;
14766;SDS011;7475;53.558;9.970;2022-12-20T11:22:11;4.22;;;3.38;;
14766;SDS011;7475;53.558;9.970;2022-12-20T11:27:32;4.72;;;3.10;;
14766;SDS011;7475;53.558;9.970;2022-12-20T11:30:03;6.07;;;2.90;;
14766;SDS011;7475;53.558;9.970;2022-12-20T11:35:30;5.32;;;2.95;;
14766;SDS011;7475;53.558;9.970;2022-12-20T11:41:01;5.80;;;3.08;;
14766;SDS011;7475;53.558;9.970;2022-12-20T11:44:14;3.60;;;2.35;;
14766;SDS011;7475;53.558;9.970;2022-12-20T11:54:55;4.90;;;2.92;;
14766;SDS011;7475;53.558;9.970;2022-12-20T11:57:46;3.05;;;2.60;;
14766;SDS011;7475;53.558;9.970;2022-12-20T12:00:35;2.83;;;2.50;;
14766;SDS011;7475;53.558;9.970;2022-12-20T12:03:20;3.85;;;2.90;;
14766;SDS011;7475;53.558;9.970;2022-12-20T12:05:56;5.00;;;2.90;;
14766;SDS011;7475;53.558;9.970;2022-12-20T12:08:38;4.20;;;3.10;;
14766;SDS011;7475;53.558;9.970;2022-12-20T12:11:16;4.95;;;3.03;;
14766;SDS011;7475;53.558;9.970;2022-12-20T12:13:45;5.88;;;3.03;;
14766;SDS011;7475;53.558;9.970;2022-12-20T12:16:17;5.20;;;2.90;;
14766;SDS011;7475;53.558;9.970;2022-12-20T12:18:48;3.35;;;2.60;;
14766;SDS011;7475;53.558;9.970;2022-12-20T12:21:24;3.90;;;2.75;;
14766;SDS011;7475;53.558;9.970;2022-12-20T12:26:39;3.30;;;2.65;;
14766;SDS011;7475;53.558;9.970;2022-12-20T12:29:09;5.28;;;2.80;;
14766;SDS011;7475;53.558;9.970;2022-12-20T12:31:59;4.47;;;2.90;;
14766;SDS011;7475;53.558;9.970;2022-12-20T12:45:27;4.63;;;3.80;;
14766;SDS011;7475;53.558;9.970;2022-12-20T12:48:16;6.20;;;3.97;;
14766;SDS011;7475;53.558;9.970;2022-12-20T12:50:50;3.65;;;2.85;;
14766;SDS011;7475;53.558;9.970;2022-12-20T12:53:21;6.38;;;4.05;;
14766;SDS011;7475;53.558;9.970;2022-12-20T12:55:58;5.55;;;4.13;;
14766;SDS011;7475;53.558;9.970;2022-12-20T12:58:43;8.20;;;3.67;;
14766;SDS011;7475;53.558;9.970;2022-12-20T13:09:34;5.70;;;3.60;;
14766;SDS011;7475;53.558;9.970;2022-12-20T13:14:58;7.60;;;4.68;;
14766;SDS011;7475;53.558;9.970;2022-12-20T13:19:54;6.15;;;4.20;;
14766;SDS011;7475;53.558;9.970;2022-12-20T13:22:24;8.30;;;4.65;;
14766;SDS011;7475;53.558;9.970;2022-12-20T13:27:44;9.68;;;4.82;;
14766;SDS011;7475;53.558;9.970;2022-12-20T13:37:53;7.50;;;4.68;;
14766;SDS011;7475;53.558;9.970;2022-12-20T13:40:32;8.00;;;5.10;;
14766;SDS011;7475;53.558;9.970;2022-12-20T13:43:04;6.95;;;4.97;;
14766;SDS011;7475;53.558;9.970;2022-12-20T13:45:37;6.72;;;4.75;;
14766;SDS011;7475;53.558;9.970;2022-12-20T13:48:07;6.28;;;4.93;;
14766;SDS011;7475;53.558;9.970;2022-12-20T13:50:39;6.05;;;4.95;;
14766;SDS011;7475;53.558;9.970;2022-12-20T13:53:24;6.80;;;4.97;;
14766;SDS011;7475;53.558;9.970;2022-12-20T13:55:54;5.43;;;4.40;;
14766;SDS011;7475;53.558;9.970;2022-12-20T13:58:20;8.18;;;5.10;;
14766;SDS011;7475;53.558;9.970;2022-12-20T14:00:49;7.22;;;4.50;;
14766;SDS011;7475;53.558;9.970;2022-12-20T14:03:24;9.57;;;5.40;;
14766;SDS011;7475;53.558;9.970;2022-12-20T14:06:00;6.82;;;5.30;;
14766;SDS011;7475;53.558;9.970;2022-12-20T14:08:29;5.85;;;4.68;;
14766;SDS011;7475;53.558;9.970;2022-12-20T14:13:56;7.00;;;4.78;;
14766;SDS011;7475;53.558;9.970;2022-12-20T14:16:23;7.57;;;5.35;;
14766;SDS011;7475;53.558;9.970;2022-12-20T14:21:21;8.23;;;5.18;;
14766;SDS011;7475;53.558;9.970;2022-12-20T14:23:49;7.32;;;5.35;;
14766;SDS011;7475;53.558;9.970;2022-12-20T14:26:17;6.35;;;5.20;;
14766;SDS011;7475;53.558;9.970;2022-12-20T14:28:49;8.93;;;5.25;;
14766;SDS011;7475;53.558;9.970;2022-12-20T14:34:03;7.72;;;5.80;;
14766;SDS011;7475;53.558;9.970;2022-12-20T14:36:30;8.50;;;5.47;;
14766;SDS011;7475;53.558;9.970;2022-12-20T14:38:56;7.40;;;5.45;;
14766;SDS011;7475;53.558;9.970;2022-12-20T14:44:19;8.50;;;6.10;;
14766;SDS011;7475;53.558;9.970;2022-12-20T14:46:57;7.60;;;5.97;;
14766;SDS011;7475;53.558;9.970;2022-12-20T14:49:31;10.82;;;5.45;;
14766;SDS011;7475;53.558;9.970;2022-12-20T14:54:42;9.70;;;5.80;;
14766;SDS011;7475;53.558;9.970;2022-12-20T14:57:10;8.77;;;5.85;;
14766;SDS011;7475;53.558;9.970;2022-12-20T14:59:44;8.38;;;5.07;;
14766;SDS011;7475;53.558;9.970;2022-12-20T15:02:40;8.15;;;5.80;;
14766;SDS011;7475;53.558;9.970;2022-12-20T15:08:12;7.75;;;5.80;;
14766;SDS011;7475;53.558;9.970;2022-12-20T15:10:39;9.43;;;6.07;;
14766;SDS011;7475;53.558;9.970;2022-12-20T15:13:16;7.90;;;4.70;;
14766;SDS011;7475;53.558;9.970;2022-12-20T15:15:43;7.45;;;5.88;;
14766;SDS011;7475;53.558;9.970;2022-12-20T15:18:12;8.10;;;6.13;;
14766;SDS011;7475;53.558;9.970;2022-12-20T15:20:43;9.25;;;6.35;;
14766;SDS011;7475;53.558;9.970;2022-12-20T15:23:17;10.57;;;5.85;;
14766;SDS011;7475;53.558;9.970;2022-12-20T15:25:44;8.45;;;5.95;;
14766;SDS011;7475;53.558;9.970;2022-12-20T15:28:18;6.75;;;5.38;;
14766;SDS011;7475;53.558;9.970;2022-12-20T15:30:48;9.07;;;5.95;;
14766;SDS011;7475;53.558;9.970;2022-12-20T15:33:16;8.15;;;5.68;;
14766;SDS011;7475;53.558;9.970;2022-12-20T15:35:44;8.02;;;5.90;;
14766;SDS011;7475;53.558;9.970;2022-12-20T15:38:12;9.32;;;6.05;;
14766;SDS011;7475;53.558;9.970;2022-12-20T15:40:41;7.47;;;6.00;;
14766;SDS011;7475;53.558;9.970;2022-12-20T15:43:11;9.07;;;5.78;;
14766;SDS011;7475;53.558;9.970;2022-12-20T15:45:37;9.02;;;6.00;;
14766;SDS011;7475;53.558;9.970;2022-12-20T15:48:03;9.65;;;6.57;;
14766;SDS011;7475;53.558;9.970;2022-12-20T15:50:29;8.30;;;5.75;;
14766;SDS011;7475;53.558;9.970;2022-12-20T15:52:54;8.25;;;5.50;;
14766;SDS011;7475;53.558;9.970;2022-12-20T15:55:19;6.50;;;5.10;;
14766;SDS011;7475;53.558;9.970;2022-12-20T15:57:45;4.93;;;4.43;;
14766;SDS011;7475;53.558;9.970;2022-12-20T16:00:11;5.95;;;5.35;;
14766;SDS011;7475;53.558;9.970;2022-12-20T16:02:37;8.68;;;5.20;;
14766;SDS011;7475;53.558;9.970;2022-12-20T16:05:02;9.48;;;6.03;;
14766;SDS011;7475;53.558;9.970;2022-12-20T16:07:28;9.73;;;6.25;;
14766;SDS011;7475;53.558;9.970;2022-12-20T16:09:53;10.57;;;5.50;;
14766;SDS011;7475;53.558;9.970;2022-12-20T16:12:24;7.78;;;5.35;;
14766;SDS011;7475;53.558;9.970;2022-12-20T16:14:51;22.67;;;18.42;;
14766;SDS011;7475;53.558;9.970;2022-12-20T16:17:17;9.50;;;6.95;;
14766;SDS011;7475;53.558;9.970;2022-12-20T16:19:42;7.22;;;5.70;;
14766;SDS011;7475;53.558;9.970;2022-12-20T16:22:26;7.05;;;5.32;;
14766;SDS011;7475;53.558;9.970;2022-12-20T16:24:51;7.25;;;6.30;;
14766;SDS011;7475;53.558;9.970;2022-12-20T16:27:16;7.13;;;5.35;;
14766;SDS011;7475;53.558;9.970;2022-12-20T16:29:42;7.82;;;5.82;;
14766;SDS011;7475;53.558;9.970;2022-12-20T16:32:11;7.85;;;5.63;;
14766;SDS011;7475;53.558;9.970;2022-12-20T16:34:41;10.05;;;6.35;;
14766;SDS011;7475;53.558;9.970;2022-12-20T16:37:07;7.20;;;5.93;;
14766;SDS011;7475;53.558;9.970;2022-12-20T16:39:32;7.22;;;5.90;;
14766;SDS011;7475;53.558;9.970;2022-12-20T16:41:57;6.18;;;4.95;;
14766;SDS011;7475;53.558;9.970;2022-12-20T16:44:25;7.75;;;5.55;;
14766;SDS011;7475;53.558;9.970;2022-12-20T16:46:50;11.10;;;5.72;;
14766;SDS011;7475;53.558;9.970;2022-12-20T16:49:16;7.50;;;5.40;;
14766;SDS011;7475;53.558;9.970;2022-12-20T16:51:42;8.55;;;6.13;;
14766;SDS011;7475;53.558;9.970;2022-12-20T16:54:13;7.03;;;5.50;;
14766;SDS011;7475;53.558;9.970;2022-12-20T16:56:41;6.55;;;5.25;;
14766;SDS011;7475;53.558;9.970;2022-12-20T16:59:08;8.73;;;6.40;;
14766;SDS011;7475;53.558;9.970;2022-12-20T17:01:34;7.95;;;6.03;;
14766;SDS011;7475;53.558;9.970;2022-12-20T17:04:02;6.47;;;5.50;;
14766;SDS011;7475;53.558;9.970;2022-12-20T17:06:28;6.70;;;5.10;;
14766;SDS011;7475;53.558;9.970;2022-12-20T17:08:53;9.32;;;6.25;;
14766;SDS011;7475;53.558;9.970;2022-12-20T17:11:20;9.82;;;6.00;;
14766;SDS011;7475;53.558;9.970;2022-12-20T17:13:48;16.25;;;10.05;;